Time;durP1;ratioP1;P1;durP2;ratioP2;P2;SDS_P1;SDS_P2;PMS_P1;PMS_P2;Temp;Humidity;BMP_temperature;BMP_pressure;BME280_temperature;BME280_humidity;BME280_pressure;Samples;Min_cycle;Max_cycle;Signal;HPM_P1;HPM_P2
2023/08/25 00:00:09;;;;;;;15.10;10.37;;;24.40;80.70;;;;;;5021051;28;20451;-78
2023/08/25 00:02:41;;;;;;;16.27;10.53;;;24.40;80.70;;;;;;5019462;28;20465;-78
2023/08/25 00:05:10;;;;;;;20.33;12.10;;;24.40;80.70;;;;;;5022885;28;20803;-76
2023/08/25 00:07:38;;;;;;;13.20;11.20;;;24.40;80.70;;;;;;5026469;28;21170;-77
2023/08/25 00:10:07;;;;;;;14.10;10.50;;;24.30;80.60;;;;;;5022981;28;20934;-76
2023/08/25 00:12:36;;;;;;;13.93;10.60;;;24.30;80.60;;;;;;5026010;28;20533;-76
2023/08/25 00:15:04;;;;;;;15.57;9.77;;;24.30;80.60;;;;;;5020438;28;20455;-80
2023/08/25 00:17:32;;;;;;;12.97;10.57;;;24.20;80.60;;;;;;5024332;28;20462;-78
2023/08/25 00:20:01;;;;;;;14.63;11.50;;;24.20;80.60;;;;;;5025758;28;21052;-79
2023/08/25 00:22:30;;;;;;;13.37;9.70;;;24.20;80.50;;;;;;5022595;28;20456;-78
2023/08/25 00:24:59;;;;;;;12.23;10.90;;;24.20;80.50;;;;;;5024006;28;20464;-78
2023/08/25 00:27:27;;;;;;;14.03;10.60;;;24.10;80.30;;;;;;5023194;28;21092;-79
2023/08/25 00:29:55;;;;;;;14.97;11.03;;;24.10;80.30;;;;;;5018139;28;20455;-77
2023/08/25 00:32:23;;;;;;;15.67;11.27;;;24.00;80.30;;;;;;5014821;28;21229;-79
2023/08/25 00:34:51;;;;;;;15.50;11.80;;;24.00;80.30;;;;;;5044216;28;20969;-76
2023/08/25 00:37:19;;;;;;;13.17;11.43;;;24.00;80.30;;;;;;5027097;28;20989;-78
2023/08/25 00:39:49;;;;;;;13.67;10.83;;;24.00;80.30;;;;;;5024325;28;20471;-78
2023/08/25 00:42:17;;;;;;;15.93;11.57;;;23.90;80.30;;;;;;5026051;28;20491;-79
2023/08/25 00:44:45;;;;;;;13.47;11.30;;;23.90;80.20;;;;;;5025026;28;20513;-78
2023/08/25 00:47:16;;;;;;;13.93;10.20;;;23.80;80.10;;;;;;5026409;28;20459;-78
2023/08/25 00:49:44;;;;;;;15.43;12.00;;;23.80;80.10;;;;;;5025162;28;20470;-75
2023/08/25 00:52:13;;;;;;;18.83;11.37;;;23.70;80.20;;;;;;5017482;28;20476;-79
2023/08/25 00:54:41;;;;;;;12.53;9.80;;;23.70;80.20;;;;;;5022247;28;20547;-78
2023/08/25 00:57:11;;;;;;;13.47;10.53;;;23.70;80.30;;;;;;5023659;28;20465;-78
2023/08/25 00:59:39;;;;;;;12.60;10.17;;;23.70;80.30;;;;;;5024809;28;20469;-77
2023/08/25 01:02:09;;;;;;;11.57;9.33;;;23.70;80.20;;;;;;5018718;28;21079;-80
2023/08/25 01:04:37;;;;;;;13.13;9.70;;;23.70;80.00;;;;;;5022033;28;20483;-76
2023/08/25 01:07:06;;;;;;;14.50;9.83;;;23.70;79.80;;;;;;5026875;28;20513;-78
2023/08/25 01:09:35;;;;;;;15.63;10.53;;;23.60;79.70;;;;;;5019064;28;20479;-77
2023/08/25 01:12:07;;;;;;;14.20;10.63;;;23.60;79.70;;;;;;5024797;28;20494;-79
2023/08/25 01:14:47;;;;;;;14.70;11.40;;;23.50;79.70;;;;;;5029014;28;20517;-80
2023/08/25 01:17:24;;;;;;;16.10;12.50;;;23.50;79.80;;;;;;5028948;28;20491;-78
2023/08/25 01:19:56;;;;;;;13.57;11.50;;;23.50;79.80;;;;;;5025175;28;20471;-81
2023/08/25 01:22:33;;;;;;;14.47;11.47;;;23.40;79.90;;;;;;5026650;28;20459;-77
2023/08/25 01:25:21;;;;;;;15.13;10.40;;;23.40;80.00;;;;;;5040694;28;20488;-77
2023/08/25 01:27:50;;;;;;;15.70;10.97;;;23.40;80.00;;;;;;5018509;28;20464;-78
2023/08/25 01:30:20;;;;;;;12.60;9.90;;;23.30;80.10;;;;;;5031393;28;20589;-79
2023/08/25 01:32:49;;;;;;;18.63;11.57;;;23.30;80.10;;;;;;5026955;28;20547;-78
2023/08/25 01:35:19;;;;;;;14.07;11.23;;;23.30;80.00;;;;;;5023418;28;20549;-78
2023/08/25 01:38:07;;;;;;;14.77;11.73;;;23.30;79.90;;;;;;5024699;28;20459;-79
2023/08/25 01:40:42;;;;;;;13.60;11.70;;;23.30;79.90;;;;;;5024256;28;20505;-79
2023/08/25 01:43:14;;;;;;;13.97;10.90;;;23.20;79.80;;;;;;5027197;28;20560;-80
2023/08/25 01:45:42;;;;;;;13.63;10.73;;;23.10;79.80;;;;;;5025672;28;20975;-79
2023/08/25 01:48:20;;;;;;;16.10;11.60;;;23.00;79.80;;;;;;5018335;28;20562;-78
2023/08/25 01:50:50;;;;;;;14.10;11.20;;;22.90;80.00;;;;;;5030778;28;20474;-77
2023/08/25 01:53:20;;;;;;;13.93;11.23;;;22.90;80.00;;;;;;5021291;28;20972;-78
2023/08/25 01:55:49;;;;;;;15.93;12.83;;;22.90;80.10;;;;;;5019116;28;20461;-78
2023/08/25 01:58:17;;;;;;;17.90;13.20;;;22.80;80.10;;;;;;5024429;28;20484;-78
2023/08/25 02:00:46;;;;;;;16.23;11.03;;;22.80;80.40;;;;;;5023526;28;20866;-80
2023/08/25 02:03:13;;;;;;;15.97;10.37;;;22.70;80.50;;;;;;5027630;28;20471;-78
2023/08/25 02:05:42;;;;;;;15.73;12.60;;;22.80;80.70;;;;;;5022608;28;20546;-78
2023/08/25 02:08:18;;;;;;;12.13;9.57;;;22.80;80.70;;;;;;5024832;28;20567;-79
2023/08/25 02:10:46;;;;;;;12.40;10.70;;;22.80;80.80;;;;;;5020760;28;20461;-79
2023/08/25 02:13:17;;;;;;;13.27;10.17;;;22.90;80.80;;;;;;5030821;28;20524;-77
2023/08/25 02:15:46;;;;;;;16.97;11.20;;;22.90;80.90;;;;;;5021826;28;20507;-79
2023/08/25 02:18:14;;;;;;;15.63;11.00;;;22.90;80.90;;;;;;5024726;28;20482;-80
2023/08/25 02:20:42;;;;;;;15.73;12.00;;;22.90;81.00;;;;;;5021253;28;20464;-79
2023/08/25 02:23:13;;;;;;;14.90;13.30;;;22.90;81.00;;;;;;5015342;28;20468;-78
2023/08/25 02:25:42;;;;;;;17.00;13.60;;;22.80;80.90;;;;;;5029167;28;20550;-79
2023/08/25 02:28:10;;;;;;;17.90;12.77;;;22.70;81.00;;;;;;5025648;28;21320;-78
2023/08/25 02:30:39;;;;;;;15.70;12.83;;;22.70;81.10;;;;;;5026328;28;20520;-77
2023/08/25 02:33:08;;;;;;;17.03;12.40;;;22.70;81.10;;;;;;5015508;28;20468;-79
2023/08/25 02:35:36;;;;;;;16.50;12.13;;;22.70;81.20;;;;;;5022389;28;20495;-78
2023/08/25 02:38:05;;;;;;;13.50;11.60;;;22.70;81.30;;;;;;5018263;28;20491;-78
2023/08/25 02:40:34;;;;;;;13.97;12.03;;;22.70;81.30;;;;;;5023819;28;20521;-79
2023/08/25 02:43:04;;;;;;;21.20;12.37;;;22.70;81.20;;;;;;5028904;28;20492;-80
2023/08/25 02:45:33;;;;;;;20.93;11.13;;;22.70;81.20;;;;;;5029124;28;20488;-77
2023/08/25 02:48:02;;;;;;;12.07;9.97;;;22.70;81.20;;;;;;5025620;28;20563;-78
2023/08/25 02:50:31;;;;;;;13.00;10.60;;;22.70;81.30;;;;;;5030333;28;20495;-79
2023/08/25 02:52:58;;;;;;;13.60;9.60;;;22.70;81.30;;;;;;5022632;28;20531;-78
2023/08/25 02:55:26;;;;;;;11.80;9.40;;;22.80;81.30;;;;;;5019656;28;21028;-77
2023/08/25 02:57:54;;;;;;;13.00;10.03;;;22.80;81.20;;;;;;5023192;28;20488;-78
2023/08/25 03:00:24;;;;;;;16.43;10.00;;;22.80;81.10;;;;;;5023458;28;21263;-79
2023/08/25 03:02:55;;;;;;;11.90;9.73;;;22.80;81.10;;;;;;5021000;28;20456;-78
2023/08/25 03:05:25;;;;;;;14.87;9.90;;;22.80;81.00;;;;;;5023733;28;20452;-78
2023/08/25 03:07:54;;;;;;;13.60;9.00;;;22.80;81.00;;;;;;5017169;28;20453;-77
2023/08/25 03:10:23;;;;;;;12.10;10.43;;;22.80;81.00;;;;;;5021663;28;20953;-78
2023/08/25 03:12:53;;;;;;;14.63;10.50;;;22.80;80.90;;;;;;5023046;28;20958;-77
2023/08/25 03:15:22;;;;;;;12.20;9.80;;;22.80;80.80;;;;;;5018719;28;21272;-77
2023/08/25 03:17:50;;;;;;;13.57;9.07;;;22.80;80.90;;;;;;5015318;28;20550;-76
2023/08/25 03:20:19;;;;;;;15.60;10.00;;;22.70;80.90;;;;;;5016646;28;20487;-81
2023/08/25 03:22:48;;;;;;;14.37;10.00;;;22.70;80.90;;;;;;5022954;28;20457;-78
2023/08/25 03:25:16;;;;;;;11.40;9.00;;;22.70;81.00;;;;;;5023096;28;20554;-80
2023/08/25 03:27:44;;;;;;;12.23;8.93;;;22.60;81.00;;;;;;5019064;28;20931;-79
2023/08/25 03:30:13;;;;;;;13.73;9.90;;;22.60;81.00;;;;;;5023560;28;20539;-77
2023/08/25 03:32:41;;;;;;;17.97;9.20;;;22.60;81.00;;;;;;5018440;28;20471;-78
2023/08/25 03:35:10;;;;;;;14.27;9.07;;;22.70;80.90;;;;;;5022961;28;21250;-78
2023/08/25 03:37:38;;;;;;;11.50;8.63;;;22.60;80.90;;;;;;5021983;28;20491;-79
2023/08/25 03:40:10;;;;;;;13.17;8.73;;;22.60;80.90;;;;;;5023230;28;20488;-78
2023/08/25 03:42:38;;;;;;;13.83;8.77;;;22.60;81.00;;;;;;5023992;28;20913;-80
2023/08/25 03:45:07;;;;;;;14.33;8.37;;;22.60;81.00;;;;;;5019662;28;20496;-76
2023/08/25 03:47:35;;;;;;;14.37;8.00;;;22.50;81.20;;;;;;5018083;28;21001;-78
2023/08/25 03:50:04;;;;;;;10.93;7.50;;;22.60;81.30;;;;;;5019255;28;20471;-76
2023/08/25 03:52:32;;;;;;;13.13;8.60;;;22.60;81.30;;;;;;5016137;28;20464;-79
2023/08/25 03:55:00;;;;;;;13.87;8.23;;;22.60;81.40;;;;;;5025432;28;21064;-79
2023/08/25 03:57:30;;;;;;;11.77;8.17;;;22.60;81.50;;;;;;5032743;28;20460;-78
2023/08/25 03:59:58;;;;;;;14.73;7.83;;;22.60;81.60;;;;;;5016439;28;20547;-80
2023/08/25 04:02:26;;;;;;;10.77;7.10;;;22.70;81.60;;;;;;5023061;28;21006;-79
2023/08/25 04:04:54;;;;;;;12.63;7.43;;;22.70;81.70;;;;;;5016690;28;20819;-78
2023/08/25 04:07:22;;;;;;;12.93;7.70;;;22.80;81.70;;;;;;5042949;28;20897;-78
2023/08/25 04:09:50;;;;;;;10.93;7.83;;;22.80;81.50;;;;;;5020849;28;20467;-80
2023/08/25 04:12:18;;;;;;;14.83;8.00;;;22.80;81.50;;;;;;5020853;28;20498;-78
2023/08/25 04:14:47;;;;;;;11.50;6.47;;;22.90;81.50;;;;;;5035497;28;20526;-79
2023/08/25 04:17:19;;;;;;;10.43;7.23;;;22.90;81.40;;;;;;5020240;28;20471;-80
2023/08/25 04:19:48;;;;;;;12.17;7.03;;;22.90;81.40;;;;;;5030802;28;20507;-78
2023/08/25 04:22:17;;;;;;;11.97;7.67;;;22.90;81.40;;;;;;5034571;28;20980;-77
2023/08/25 04:24:45;;;;;;;10.07;7.27;;;22.90;81.40;;;;;;5022181;28;20548;-79
2023/08/25 04:27:13;;;;;;;16.90;7.80;;;22.90;81.40;;;;;;5019022;28;20475;-79
2023/08/25 04:29:41;;;;;;;12.97;8.10;;;22.90;81.40;;;;;;5024737;28;20535;-78
2023/08/25 04:32:12;;;;;;;12.43;7.40;;;22.90;81.40;;;;;;5020549;28;20536;-79
2023/08/25 04:34:44;;;;;;;12.03;8.10;;;22.90;81.40;;;;;;5020658;28;20482;-78
2023/08/25 04:37:12;;;;;;;10.63;6.73;;;22.90;81.40;;;;;;5025179;28;20475;-79
2023/08/25 04:39:41;;;;;;;12.10;7.80;;;22.90;81.50;;;;;;5050275;28;20455;-78
2023/08/25 04:42:10;;;;;;;11.33;7.10;;;23.00;81.40;;;;;;5026485;28;21030;-79
2023/08/25 04:44:39;;;;;;;9.93;7.00;;;23.00;81.40;;;;;;5018813;28;20531;-80
2023/08/25 04:47:07;;;;;;;9.30;6.43;;;23.00;81.30;;;;;;5025220;28;20468;-78
2023/08/25 04:49:37;;;;;;;12.60;6.43;;;23.00;81.30;;;;;;5023862;28;20557;-76
2023/08/25 04:52:05;;;;;;;11.27;6.70;;;23.00;81.30;;;;;;5030195;28;20531;-76
2023/08/25 04:54:33;;;;;;;13.50;6.33;;;23.00;81.30;;;;;;5025871;28;20533;-78
2023/08/25 04:57:01;;;;;;;11.73;7.07;;;23.00;81.20;;;;;;5026110;28;21197;-76
2023/08/25 04:59:32;;;;;;;9.60;7.33;;;23.00;81.20;;;;;;5025669;28;20455;-78
2023/08/25 05:02:00;;;;;;;11.67;6.73;;;23.00;81.20;;;;;;5031843;28;20584;-78
2023/08/25 05:04:28;;;;;;;9.70;6.93;;;23.00;81.30;;;;;;5024368;28;20826;-77
2023/08/25 05:06:58;;;;;;;10.30;7.20;;;23.20;81.50;;;;;;5022517;28;21039;-79
2023/08/25 05:09:26;;;;;;;12.43;6.80;;;23.40;81.30;;;;;;5022020;28;20467;-78
2023/08/25 05:11:54;;;;;;;10.77;6.70;;;23.50;80.90;;;;;;5026165;28;20480;-77
2023/08/25 05:14:23;;;;;;;10.10;6.50;;;23.80;81.20;;;;;;5025935;28;20478;-77
2023/08/25 05:16:51;;;;;;;15.20;6.50;;;24.20;80.80;;;;;;5025234;28;20513;-78
2023/08/25 05:19:27;;;;;;;10.00;5.80;;;24.50;80.30;;;;;;5032598;28;20897;-77
2023/08/25 05:21:55;;;;;;;9.67;5.77;;;24.90;79.80;;;;;;5025305;28;20464;-78
2023/08/25 05:24:26;;;;;;;10.50;6.00;;;25.30;79.40;;;;;;5030329;28;20451;-77
2023/08/25 05:26:55;;;;;;;10.40;5.10;;;25.60;78.30;;;;;;5024998;28;21121;-78
2023/08/25 05:29:25;;;;;;;13.17;5.73;;;25.70;78.00;;;;;;5025769;28;20456;-79
2023/08/25 05:31:55;;;;;;;10.23;5.50;;;25.90;78.40;;;;;;5026297;28;20485;-77
2023/08/25 05:34:48;;;;;;;11.77;6.07;;;26.30;77.40;;;;;;5019443;28;20501;-76
2023/08/25 05:37:16;;;;;;;8.30;5.13;;;26.20;76.10;;;;;;5025970;28;20455;-79
2023/08/25 05:39:46;;;;;;;10.40;6.30;;;25.90;76.00;;;;;;5033923;28;21074;-78
2023/08/25 05:42:14;;;;;;;10.93;6.40;;;25.60;76.30;;;;;;5029003;28;20464;-79
2023/08/25 05:44:43;;;;;;;11.60;5.93;;;25.30;76.80;;;;;;5024041;28;20463;-78
2023/08/25 05:47:11;;;;;;;13.93;6.03;;;25.10;76.90;;;;;;5040207;28;20494;-79
2023/08/25 05:49:39;;;;;;;13.47;6.23;;;24.80;77.30;;;;;;5026587;28;20496;-77
2023/08/25 05:52:08;;;;;;;11.60;6.53;;;24.60;77.50;;;;;;5024411;28;20495;-78
2023/08/25 05:54:37;;;;;;;9.33;6.73;;;24.50;77.70;;;;;;5021989;28;20472;-78
2023/08/25 05:57:08;;;;;;;10.90;6.80;;;24.30;78.00;;;;;;5029681;28;20451;-77
2023/08/25 05:59:36;;;;;;;11.07;7.03;;;24.20;78.20;;;;;;5024041;28;20462;-77
2023/08/25 06:02:04;;;;;;;12.93;6.77;;;24.10;78.50;;;;;;5027789;28;20563;-76
2023/08/25 06:04:32;;;;;;;9.13;6.50;;;24.10;78.70;;;;;;5024470;28;20451;-79
2023/08/25 06:07:00;;;;;;;10.87;6.80;;;24.00;78.80;;;;;;5032135;28;20451;-77
2023/08/25 06:09:28;;;;;;;11.60;6.23;;;23.90;79.00;;;;;;5021029;28;20543;-77
2023/08/25 06:11:56;;;;;;;9.70;6.10;;;23.90;79.10;;;;;;5021756;28;20461;-79
2023/08/25 06:14:26;;;;;;;10.00;6.23;;;23.90;79.20;;;;;;5028000;28;20452;-79
2023/08/25 06:16:59;;;;;;;11.77;6.70;;;23.80;79.30;;;;;;5024409;28;20479;-78
2023/08/25 06:19:28;;;;;;;10.13;7.00;;;23.80;79.50;;;;;;5019579;28;20456;-79
2023/08/25 06:21:55;;;;;;;9.57;6.00;;;23.80;79.50;;;;;;5026288;28;20465;-78
2023/08/25 06:24:24;;;;;;;10.27;5.83;;;23.80;79.60;;;;;;5023649;28;20451;-77
2023/08/25 06:26:53;;;;;;;10.60;6.97;;;23.70;79.70;;;;;;5024421;28;20469;-78
2023/08/25 06:29:21;;;;;;;12.80;8.60;;;23.70;79.80;;;;;;5026303;28;20551;-80
2023/08/25 06:31:50;;;;;;;13.93;9.30;;;23.50;79.90;;;;;;5020901;28;20471;-79
2023/08/25 06:34:18;;;;;;;13.60;10.10;;;23.40;80.10;;;;;;5020824;28;20463;-78
2023/08/25 06:36:46;;;;;;;15.40;9.50;;;23.30;80.30;;;;;;5021072;28;20491;-79
2023/08/25 06:39:14;;;;;;;15.30;8.57;;;23.30;80.50;;;;;;5020931;28;20522;-78
2023/08/25 06:41:42;;;;;;;16.33;8.80;;;23.30;80.70;;;;;;5012205;28;20608;-79
2023/08/25 06:44:11;;;;;;;14.27;9.20;;;23.30;80.80;;;;;;5018450;28;20483;-77
2023/08/25 06:46:39;;;;;;;14.57;10.10;;;23.30;80.90;;;;;;5018945;28;20463;-78
2023/08/25 06:49:11;;;;;;;13.80;9.53;;;23.30;81.00;;;;;;5025779;28;20487;-79
2023/08/25 06:51:39;;;;;;;12.50;8.27;;;23.30;81.10;;;;;;5020415;28;20988;-79
2023/08/25 06:54:07;;;;;;;10.90;7.10;;;23.20;81.20;;;;;;5015840;28;21083;-77
2023/08/25 06:56:35;;;;;;;11.53;7.40;;;23.20;81.30;;;;;;5019705;28;20479;-79
2023/08/25 06:59:03;;;;;;;12.83;7.23;;;23.10;81.50;;;;;;5022662;28;20465;-78
2023/08/25 07:01:31;;;;;;;10.40;6.37;;;23.10;81.60;;;;;;5024775;28;20999;-78
2023/08/25 07:04:00;;;;;;;10.37;5.70;;;23.10;81.70;;;;;;5015666;28;21217;-76
2023/08/25 07:06:29;;;;;;;10.33;5.57;;;23.10;81.70;;;;;;5015481;28;21360;-78
2023/08/25 07:08:58;;;;;;;9.47;5.70;;;23.10;81.60;;;;;;5022662;28;20569;-79
2023/08/25 07:11:27;;;;;;;14.00;6.13;;;23.10;81.70;;;;;;5019695;28;20473;-79
2023/08/25 07:13:55;;;;;;;13.10;6.33;;;23.20;81.60;;;;;;5024190;28;20464;-79
2023/08/25 07:16:24;;;;;;;12.17;6.50;;;23.20;81.60;;;;;;5021878;28;20476;-79
2023/08/25 07:18:52;;;;;;;12.40;6.03;;;23.20;81.60;;;;;;5016646;28;20464;-78
2023/08/25 07:21:20;;;;;;;9.53;5.00;;;23.20;81.60;;;;;;5023986;28;20456;-80
2023/08/25 07:23:50;;;;;;;9.90;4.93;;;23.20;81.50;;;;;;5020357;28;20502;-79
2023/08/25 07:26:18;;;;;;;8.90;4.93;;;23.20;81.40;;;;;;5020339;28;20564;-78
2023/08/25 07:28:47;;;;;;;8.57;4.53;;;23.10;81.40;;;;;;5020578;28;20465;-78
2023/08/25 07:31:15;;;;;;;7.40;4.53;;;23.10;81.30;;;;;;5018133;28;20583;-78
2023/08/25 07:33:43;;;;;;;9.37;4.60;;;23.20;81.30;;;;;;5031614;28;20810;-78
2023/08/25 07:36:11;;;;;;;12.73;4.80;;;23.20;81.20;;;;;;5031605;28;20563;-79
2023/08/25 07:38:40;;;;;;;14.00;3.90;;;23.10;81.00;;;;;;5021504;28;20586;-79
2023/08/25 07:41:09;;;;;;;10.03;4.40;;;23.10;80.80;;;;;;5024382;28;20601;-80
2023/08/25 07:43:37;;;;;;;8.73;4.43;;;23.10;80.70;;;;;;5020154;28;21001;-80
2023/08/25 07:46:06;;;;;;;10.03;4.20;;;23.00;80.60;;;;;;5018756;28;20464;-80
2023/08/25 07:48:34;;;;;;;7.30;4.00;;;23.00;80.70;;;;;;5052538;28;20455;-78
2023/08/25 07:51:02;;;;;;;8.10;3.83;;;23.10;80.60;;;;;;5020216;28;20471;-80
2023/08/25 07:53:31;;;;;;;8.87;3.83;;;23.10;80.50;;;;;;5024693;28;20548;-78
2023/08/25 07:55:59;;;;;;;11.13;4.87;;;23.10;80.30;;;;;;5021317;28;20486;-80
2023/08/25 07:58:28;;;;;;;10.70;4.33;;;23.10;80.30;;;;;;5022032;28;20973;-79
2023/08/25 08:00:56;;;;;;;10.60;4.13;;;23.00;80.20;;;;;;5025205;28;20483;-78
2023/08/25 08:03:26;;;;;;;7.73;3.80;;;23.00;80.30;;;;;;5022922;28;20452;-80
2023/08/25 08:05:55;;;;;;;7.00;3.57;;;23.00;80.30;;;;;;5022503;28;20452;-78
2023/08/25 08:08:23;;;;;;;13.00;4.00;;;23.00;80.30;;;;;;5019211;28;20452;-77
2023/08/25 08:10:51;;;;;;;9.23;4.30;;;22.90;80.20;;;;;;5021401;28;20933;-78
2023/08/25 08:13:19;;;;;;;7.23;3.47;;;22.90;80.30;;;;;;5014206;28;20464;-76
2023/08/25 08:15:50;;;;;;;9.77;4.30;;;22.80;80.40;;;;;;5016252;28;20709;-77
2023/08/25 08:18:18;;;;;;;8.07;3.57;;;22.80;80.40;;;;;;5025112;28;20449;-79
2023/08/25 08:20:48;;;;;;;8.60;3.90;;;22.90;80.40;;;;;;5021574;28;21183;-77
2023/08/25 08:23:16;;;;;;;8.40;3.10;;;22.80;80.40;;;;;;5020368;28;21088;-78
2023/08/25 08:25:44;;;;;;;6.47;3.27;;;22.90;80.50;;;;;;5027313;28;20443;-77
2023/08/25 08:28:12;;;;;;;10.53;3.23;;;22.80;80.40;;;;;;5023670;28;20911;-79
2023/08/25 08:30:43;;;;;;;8.80;3.50;;;22.80;80.40;;;;;;5031721;28;20472;-77
2023/08/25 08:33:15;;;;;;;9.23;3.53;;;22.80;80.50;;;;;;5022552;28;20929;-79
2023/08/25 08:35:44;;;;;;;8.30;3.33;;;22.90;80.40;;;;;;5026120;28;20526;-77
2023/08/25 08:38:11;;;;;;;7.83;3.30;;;22.90;80.40;;;;;;5021583;28;20510;-79
2023/08/25 08:40:40;;;;;;;9.97;3.83;;;23.00;80.50;;;;;;5022896;28;20455;-78
2023/08/25 08:43:10;;;;;;;7.73;2.90;;;23.00;80.50;;;;;;5020611;28;20468;-77
2023/08/25 08:45:40;;;;;;;7.97;3.70;;;23.00;80.60;;;;;;5022393;28;20479;-78
2023/08/25 08:48:09;;;;;;;6.23;2.97;;;23.00;80.70;;;;;;5019892;28;20943;-78
2023/08/25 08:50:39;;;;;;;7.90;3.63;;;23.10;80.80;;;;;;5020101;28;20452;-80
2023/08/25 08:53:09;;;;;;;7.23;2.87;;;23.10;80.90;;;;;;5016615;28;20451;-79
2023/08/25 08:55:39;;;;;;;5.90;3.70;;;23.20;80.90;;;;;;5019584;28;20457;-79
2023/08/25 08:58:07;;;;;;;6.93;3.50;;;23.30;80.90;;;;;;5018606;28;20574;-79
2023/08/25 09:00:35;;;;;;;9.40;3.63;;;23.30;80.90;;;;;;5019618;28;20574;-78
2023/08/25 09:03:10;;;;;;;7.87;3.20;;;23.40;80.90;;;;;;5025255;28;20469;-79
2023/08/25 09:05:42;;;;;;;9.83;3.50;;;23.40;80.90;;;;;;5020986;28;20529;-77
2023/08/25 09:08:12;;;;;;;7.40;3.27;;;23.40;80.90;;;;;;5020818;28;20459;-79
2023/08/25 09:10:40;;;;;;;8.93;3.27;;;23.40;81.00;;;;;;5023028;28;20539;-78
2023/08/25 09:13:08;;;;;;;6.07;3.10;;;23.40;81.10;;;;;;5027875;28;20546;-80
2023/08/25 09:15:36;;;;;;;7.80;3.47;;;23.40;81.20;;;;;;5025266;28;20460;-79
2023/08/25 09:18:06;;;;;;;9.77;3.57;;;23.50;81.30;;;;;;5044775;28;20514;-78
2023/08/25 09:20:38;;;;;;;8.10;3.50;;;23.50;81.20;;;;;;5026037;28;21285;-78
2023/08/25 09:23:08;;;;;;;8.60;3.20;;;23.50;81.10;;;;;;5022293;28;20458;-78
2023/08/25 09:25:40;;;;;;;7.90;3.27;;;23.50;81.10;;;;;;5025210;28;20506;-78
2023/08/25 09:28:09;;;;;;;6.63;3.33;;;23.60;81.10;;;;;;5021470;28;20487;-77
2023/08/25 09:30:40;;;;;;;10.07;3.20;;;23.60;81.10;;;;;;5021016;28;21229;-77
2023/08/25 09:33:10;;;;;;;7.60;3.50;;;23.70;81.10;;;;;;5018067;28;20468;-79
2023/08/25 09:35:38;;;;;;;6.33;3.20;;;23.70;81.00;;;;;;5022801;28;21024;-80
2023/08/25 09:38:08;;;;;;;8.77;3.30;;;23.70;80.90;;;;;;5024342;28;20483;-79
2023/08/25 09:40:36;;;;;;;6.90;3.17;;;23.80;80.80;;;;;;5021590;28;20783;-78
2023/08/25 09:43:05;;;;;;;7.20;3.27;;;23.80;80.60;;;;;;5022401;28;20538;-78
2023/08/25 09:45:36;;;;;;;7.13;3.23;;;23.80;80.50;;;;;;5017408;28;20463;-77
2023/08/25 09:48:09;;;;;;;8.33;2.67;;;23.70;80.50;;;;;;5023571;28;20880;-78
2023/08/25 09:50:39;;;;;;;6.30;2.53;;;23.70;80.40;;;;;;5024954;28;20488;-78
2023/08/25 09:53:10;;;;;;;6.47;3.20;;;23.70;80.40;;;;;;5029491;28;20467;-78
2023/08/25 09:55:41;;;;;;;6.33;3.20;;;23.80;80.40;;;;;;5029813;28;20863;-79
2023/08/25 09:58:11;;;;;;;8.63;3.13;;;23.80;80.30;;;;;;5024158;28;20577;-77
2023/08/25 10:00:41;;;;;;;6.93;2.80;;;23.90;80.40;;;;;;5025466;28;20486;-79
2023/08/25 10:03:11;;;;;;;7.90;3.43;;;23.90;80.40;;;;;;5028120;28;20541;-78
2023/08/25 10:05:41;;;;;;;6.10;3.13;;;24.00;80.30;;;;;;5029747;28;20455;-78
2023/08/25 10:08:10;;;;;;;7.10;3.30;;;24.10;80.30;;;;;;5022722;28;20444;-79
2023/08/25 10:10:39;;;;;;;7.83;3.00;;;24.10;80.30;;;;;;5019784;28;20479;-78
2023/08/25 10:13:12;;;;;;;6.63;3.30;;;24.20;80.20;;;;;;5031865;28;20451;-79
2023/08/25 10:15:43;;;;;;;7.07;3.00;;;24.20;80.00;;;;;;5028732;28;21185;-79
2023/08/25 10:18:11;;;;;;;6.33;3.60;;;24.30;79.90;;;;;;5027099;28;20516;-80
2023/08/25 10:20:40;;;;;;;7.43;2.83;;;24.40;80.00;;;;;;5022972;28;21046;-78
2023/08/25 10:23:10;;;;;;;9.70;2.97;;;24.50;80.10;;;;;;5022321;28;20459;-79
2023/08/25 10:25:40;;;;;;;8.90;3.80;;;24.60;80.00;;;;;;5023995;28;20978;-77
2023/08/25 10:28:09;;;;;;;7.27;3.60;;;24.70;79.80;;;;;;5030184;28;20439;-77
2023/08/25 10:30:38;;;;;;;7.53;3.00;;;24.80;79.80;;;;;;5021030;28;20486;-79
2023/08/25 10:33:11;;;;;;;5.60;2.90;;;24.90;79.60;;;;;;5024126;28;20481;-77
2023/08/25 10:35:41;;;;;;;6.40;2.80;;;25.00;79.40;;;;;;5023132;28;20460;-78
2023/08/25 10:38:36;;;;;;;6.00;2.93;;;25.10;79.30;;;;;;5030523;28;20533;-78
2023/08/25 10:41:13;;;;;;;9.30;3.37;;;25.20;79.00;;;;;;5020510;28;20451;-77
2023/08/25 10:43:45;;;;;;;6.50;2.80;;;25.30;79.00;;;;;;5020102;28;20455;-77
2023/08/25 10:46:13;;;;;;;7.73;2.87;;;25.30;79.00;;;;;;5028576;28;20530;-79
2023/08/25 10:48:43;;;;;;;11.30;3.17;;;25.40;78.30;;;;;;5021707;28;20455;-80
2023/08/25 10:51:16;;;;;;;5.50;2.43;;;25.50;78.20;;;;;;5024003;28;21212;-77
2023/08/25 10:53:47;;;;;;;7.23;3.13;;;25.60;78.10;;;;;;5026048;28;20447;-78
2023/08/25 10:56:22;;;;;;;8.90;2.90;;;25.70;78.10;;;;;;5020073;28;20546;-79
2023/08/25 10:59:04;;;;;;;6.50;2.80;;;25.80;78.00;;;;;;5021917;28;20504;-79
2023/08/25 11:01:54;;;;;;;5.33;2.73;;;25.90;78.00;;;;;;5018067;28;20471;-79
2023/08/25 11:04:24;;;;;;;5.73;2.50;;;26.10;77.70;;;;;;5023699;28;20607;-79
2023/08/25 11:06:55;;;;;;;5.57;2.63;;;26.10;77.40;;;;;;5020582;28;20452;-79
2023/08/25 11:09:33;;;;;;;5.77;2.43;;;26.20;77.00;;;;;;5022276;28;20456;-76
2023/08/25 11:12:03;;;;;;;5.90;3.03;;;26.30;76.50;;;;;;5035934;28;20460;-80
2023/08/25 11:14:34;;;;;;;7.20;2.80;;;26.30;76.30;;;;;;5020185;28;20562;-77
2023/08/25 11:17:04;;;;;;;7.03;2.93;;;26.30;76.00;;;;;;5014122;28;20459;-79
2023/08/25 11:19:33;;;;;;;5.03;2.53;;;26.20;75.90;;;;;;5019906;28;20629;-78
2023/08/25 11:22:02;;;;;;;6.00;2.93;;;26.20;75.60;;;;;;5021144;28;20461;-79
2023/08/25 11:24:32;;;;;;;6.50;2.67;;;26.20;75.40;;;;;;5025112;28;20533;-78
2023/08/25 11:27:05;;;;;;;5.60;2.57;;;26.10;75.30;;;;;;5029938;28;20457;-78
2023/08/25 11:29:33;;;;;;;7.30;2.80;;;26.10;75.00;;;;;;5015860;28;20467;-79
2023/08/25 11:32:01;;;;;;;5.87;2.43;;;26.00;74.90;;;;;;5021425;28;20469;-77
2023/08/25 11:34:31;;;;;;;8.80;3.10;;;26.00;74.70;;;;;;5023403;28;20457;-78
2023/08/25 11:37:00;;;;;;;7.53;2.80;;;26.00;74.70;;;;;;5022784;28;20900;-76
2023/08/25 11:39:28;;;;;;;9.10;2.93;;;26.00;74.50;;;;;;5024826;28;20615;-77
2023/08/25 11:41:57;;;;;;;7.67;3.40;;;26.00;74.40;;;;;;5026573;28;20473;-80
2023/08/25 11:44:26;;;;;;;6.57;2.60;;;26.00;74.30;;;;;;5024611;28;20456;-78
2023/08/25 11:46:54;;;;;;;6.23;3.13;;;26.00;74.20;;;;;;5021155;28;20464;-79
2023/08/25 11:49:29;;;;;;;7.37;2.83;;;26.00;74.20;;;;;;5023996;28;20447;-80
2023/08/25 11:51:57;;;;;;;7.70;2.83;;;26.00;74.00;;;;;;5017933;28;20547;-76
2023/08/25 11:54:25;;;;;;;7.73;3.10;;;26.00;73.90;;;;;;5014552;28;20459;-77
2023/08/25 11:56:53;;;;;;;7.20;3.13;;;26.00;73.80;;;;;;5022836;28;20925;-78
2023/08/25 11:59:29;;;;;;;7.47;2.90;;;26.00;73.80;;;;;;5016663;28;20480;-78
2023/08/25 12:02:01;;;;;;;6.17;3.10;;;26.00;73.70;;;;;;5021850;28;20487;-76
2023/08/25 12:04:29;;;;;;;6.40;3.23;;;26.00;73.70;;;;;;5022065;28;20571;-78
2023/08/25 12:06:58;;;;;;;6.00;2.80;;;26.00;73.70;;;;;;5021373;28;20559;-78
2023/08/25 12:09:27;;;;;;;6.10;3.13;;;26.00;73.60;;;;;;5019820;28;20797;-78
2023/08/25 12:11:55;;;;;;;8.10;3.40;;;25.90;73.70;;;;;;5021430;28;20538;-76
2023/08/25 12:14:26;;;;;;;6.40;3.17;;;25.90;73.70;;;;;;5023436;28;20531;-79
2023/08/25 12:16:55;;;;;;;7.60;3.33;;;25.90;73.70;;;;;;5023828;28;20456;-80
2023/08/25 12:19:25;;;;;;;7.70;3.00;;;25.90;73.80;;;;;;5024522;28;20521;-77
2023/08/25 12:21:55;;;;;;;11.97;3.83;;;26.00;73.90;;;;;;5016940;28;20516;-77
2023/08/25 12:24:24;;;;;;;17.13;5.10;;;26.00;73.90;;;;;;5019289;28;20559;-76
2023/08/25 12:26:52;;;;;;;24.60;6.20;;;26.10;73.90;;;;;;5017145;28;21131;-78
2023/08/25 12:29:21;;;;;;;9.33;3.97;;;26.10;73.70;;;;;;5020039;28;20456;-78
2023/08/25 12:31:50;;;;;;;12.60;5.03;;;26.10;73.60;;;;;;5017413;28;20575;-78
2023/08/25 12:34:18;;;;;;;25.33;8.63;;;26.10;73.50;;;;;;5030000;28;20574;-76
2023/08/25 12:36:47;;;;;;;34.10;11.27;;;26.20;73.50;;;;;;5027534;28;20828;-75
2023/08/25 12:39:15;;;;;;;18.80;6.70;;;26.20;73.50;;;;;;5024712;28;20472;-79
2023/08/25 12:41:43;;;;;;;12.63;4.93;;;26.20;73.60;;;;;;5023978;28;20554;-77
2023/08/25 12:44:11;;;;;;;8.97;3.80;;;26.30;73.60;;;;;;5021979;28;20462;-77
2023/08/25 12:46:39;;;;;;;6.20;3.37;;;26.30;73.50;;;;;;5024734;28;20459;-77
2023/08/25 12:49:08;;;;;;;8.80;4.10;;;26.40;73.40;;;;;;5023257;28;20475;-78